Briefing drone pour Montrond-les-bains

Rechercher une autre localisation

Conditions de vol :


Nous sommes le : Vendredi 07 mai 2021
Il est 01:23 UTC (03:23 LT)

Lever de soleil : 03:55 UTC (05:55 LT)
Coucher de soleil : 19:23 UTC (21:23 LT)

Météo

L'essentiel des conditions de vol

VIGILANCE MÉTÉO FRANCE - Loire (42)
Pas de vigilances particulieres
CARTE TEMSI
CARTES DES FRONTS
METAR de LFMH
LFMH 070100Z AUTO 17005KT 9999 NSC 10/08 Q1014 TEMPO 35010KT SHRA SCT020TCU BKN025

Date d'émission: 07/05/2021
Heure d'émission: 01:00 UTC
Vent: 170° pour 5 KT (9 km/h)
Visibilité horizontale: > 10 km
Plafond : Pas de nuages significatifs (NSC)
Température: 10 °C
Point de rosée: 8 °C
Humidité: 87%
Pression (QNH): 1014 hPa

Temporairement:

Vent : 350° pour 10 KT (19 km/h)
Plafond :
- Nuages épars à 2000ft (610m)
- Nuages morcelés à 2500ft (762m)
Conditions : Averses de pluie
TAF de LFMH
LFMH 061904Z 0619/0712 CNL

Conditions prévues :

Heure d'émission : Bulletin éffectué le 06 à 19:00 UTC
Prévision : Valide du 06 a 19:00 UTC au 07 a 12:00 UTC
Nuages : à 0ft (0 m)
WEBCAM POUR MONTROND-LES-BAINS

Réglementation

Voler en sécurité

CARTES AERONAUTIQUE 1/500.000
CARTES VAC (LFMH)
SUP AIP




Chargement des AIP...
NOTAM (MONTROND-LES-BAINS + Terrain à proximité / FIR )




Chargement des NOTAMS...
CONTACT PREFECTURE 42


Avertissement : Les données mises à disposition sont indicatives. Oxygène Drone ne pourra être tenu responsable de dégâts causés aux biens et aux personnes.